CheckWX is a tool to help pilots better visualize weather data.  It is not intended as a substitute for an official pre-flight weather briefing.

01:23:02 UTC

VTPP METAR
Phitsanulok Airport
Thailand
Current

23 mins ago

VTPP 040100Z 13005KT 9999 FEW020 BKN080 25/24 Q1008 NOSIG
Observed
Jul-4 @ 01:00 UTC
Wind
  • 130° at 5 KTS
Visibility
10,000+ meters
Flight Rules
VFR
Cloud Levels
  • Few at 2,000' AGL
  • Broken at 8,000' AGL
Temperature
25°C / 77°F
Dewpoint
24°C / 75°F
Humidity
94%
Altimeter
29.76" Hg
Pressure
1007.92 hPa
Previous

1 hour ago

VTPP 040000Z 13006KT 9999 FEW025 BKN080 25/24 Q1008 NOSIG
Observed
Jul-4 @ 00:00 UTC
Wind
  • 130° at 6 KTS
Visibility
10,000+ meters
Flight Rules
VFR
Cloud Levels
  • Few at 2,500' AGL
  • Broken at 8,000' AGL
Temperature
25°C / 77°F
Dewpoint
24°C / 75°F
Humidity
94%
Altimeter
29.76" Hg
Pressure
1007.92 hPa
Previous

2 hours ago

VTPP 032300Z 13008KT 9999 FEW025 BKN080 25/24 Q1007 NOSIG
Observed
Jul-3 @ 23:00 UTC
Wind
  • 130° at 8 KTS
Visibility
10,000+ meters
Flight Rules
VFR
Cloud Levels
  • Few at 2,500' AGL
  • Broken at 8,000' AGL
Temperature
25°C / 77°F
Dewpoint
24°C / 75°F
Humidity
94%
Altimeter
29.73" Hg
Pressure
1006.92 hPa